Time;durP1;ratioP1;P1;durP2;ratioP2;P2;SDS_P1;SDS_P2;PMS_P1;PMS_P2;Temp;Humidity;BMP_temperature;BMP_pressure;BME280_temperature;BME280_humidity;BME280_pressure;Samples;Min_cycle;Max_cycle;Signal;HPM_P1;HPM_P2
2021/09/30 00:00:14;;;;;;;6.57;1.42;;;10.50;93.00;;;;;;5013677;28;20065;-77
2021/09/30 00:02:40;;;;;;;6.63;1.23;;;10.50;92.70;;;;;;5012336;28;20022;-76
2021/09/30 00:05:07;;;;;;;4.75;1.85;;;10.60;92.80;;;;;;5012330;28;20029;-76
2021/09/30 00:07:33;;;;;;;3.83;1.30;;;10.50;92.70;;;;;;5014215;28;20018;-77
2021/09/30 00:09:59;;;;;;;5.55;1.40;;;10.50;92.70;;;;;;5012831;28;20026;-78
2021/09/30 00:12:28;;;;;;;6.72;2.10;;;10.50;92.70;;;;;;5011959;28;20087;-76
2021/09/30 00:47:52;;;;;;;5.90;2.00;;;10.30;92.90;;;;;;5006266;28;20041;-77
2021/09/30 00:50:39;;;;;;;7.57;2.38;;;10.30;92.90;;;;;;5012229;28;20109;-77
2021/09/30 01:32:06;;;;;;;10.32;4.72;;;10.10;93.40;;;;;;5024331;28;20437;-77
2021/09/30 01:46:56;;;;;;;10.90;4.68;;;10.00;93.70;;;;;;5016381;28;20040;-77
2021/09/30 02:59:33;;;;;;;9.13;4.13;;;9.50;93.70;;;;;;5015341;28;20088;-76
2021/09/30 03:02:01;;;;;;;11.25;4.68;;;9.50;93.70;;;;;;5015361;28;20117;-76
2021/09/30 03:04:29;;;;;;;15.18;4.68;;;9.60;93.80;;;;;;5013658;28;20022;-76
2021/09/30 03:06:56;;;;;;;12.45;4.40;;;9.50;93.70;;;;;;5013815;28;20374;-77
2021/09/30 03:09:22;;;;;;;9.43;4.57;;;9.60;93.70;;;;;;5015721;28;20018;-77
2021/09/30 03:11:52;;;;;;;11.43;4.57;;;9.50;93.60;;;;;;5032791;28;20010;-75
2021/09/30 03:14:20;;;;;;;10.32;4.75;;;9.50;93.50;;;;;;5032394;28;20029;-76
2021/09/30 03:16:50;;;;;;;16.10;4.65;;;9.50;93.60;;;;;;5022668;28;20022;-77
2021/09/30 03:24:33;;;;;;;12.00;4.05;;;9.50;93.50;;;;;;5014045;28;20096;-75
2021/09/30 03:27:01;;;;;;;10.93;4.85;;;9.40;93.50;;;;;;5012980;28;20022;-76
2021/09/30 03:29:28;;;;;;;11.05;4.40;;;9.40;93.50;;;;;;5013047;28;20495;-76
2021/09/30 03:31:54;;;;;;;9.15;4.35;;;9.40;93.50;;;;;;5012956;28;20783;-76
2021/09/30 03:34:20;;;;;;;9.30;3.90;;;9.40;93.50;;;;;;5013104;28;20478;-76
2021/09/30 03:36:45;;;;;;;13.57;4.20;;;9.40;93.40;;;;;;5012517;28;20049;-76
2021/09/30 03:39:15;;;;;;;13.55;4.10;;;9.40;93.50;;;;;;5012817;28;20045;-76
2021/09/30 03:41:42;;;;;;;11.38;3.70;;;9.40;93.50;;;;;;5012661;28;20372;-76
2021/09/30 03:44:09;;;;;;;11.68;3.90;;;9.40;93.50;;;;;;5012722;28;20093;-76
2021/09/30 03:46:35;;;;;;;15.73;3.70;;;9.40;93.50;;;;;;5012704;28;20080;-77
2021/09/30 03:49:07;;;;;;;10.23;4.47;;;9.30;93.50;;;;;;5013088;28;20026;-77
2021/09/30 03:59:30;;;;;;;14.70;4.57;;;9.30;93.60;;;;;;5013441;28;20034;-77
2021/09/30 04:02:00;;;;;;;9.63;3.90;;;9.30;93.60;;;;;;5012231;28;20549;-76
2021/09/30 04:04:28;;;;;;;;;;;9.30;93.50;;;;;;5012718;28;20049;-76
2021/09/30 04:06:56;;;;;;;12.35;3.95;;;9.30;93.50;;;;;;5012230;28;19909;-76
2021/09/30 04:09:26;;;;;;;12.73;4.47;;;9.30;93.80;;;;;;5013617;28;20023;-76
2021/09/30 04:12:00;;;;;;;9.18;4.40;;;9.20;93.50;;;;;;5012100;28;20038;-77
2021/09/30 04:14:27;;;;;;;12.05;4.40;;;9.30;93.50;;;;;;5012345;28;20380;-77
2021/09/30 04:16:53;;;;;;;10.73;3.58;;;9.30;93.50;;;;;;5011927;28;20564;-75
2021/09/30 04:19:20;;;;;;;10.65;3.45;;;9.20;93.50;;;;;;5013022;28;20030;-76
2021/09/30 04:21:48;;;;;;;15.77;5.38;;;9.30;93.50;;;;;;5013179;28;20033;-77
2021/09/30 04:24:14;;;;;;;12.15;4.68;;;9.30;93.50;;;;;;5011598;28;20172;-77
2021/09/30 04:26:41;;;;;;;11.25;4.10;;;9.30;93.50;;;;;;5011802;28;20021;-76
2021/09/30 04:29:07;;;;;;;12.70;3.90;;;9.30;93.50;;;;;;5013619;28;20024;-77
2021/09/30 04:31:33;;;;;;;9.85;4.22;;;9.20;93.50;;;;;;5012139;28;20022;-76
2021/09/30 04:33:59;;;;;;;17.50;4.88;;;9.20;93.50;;;;;;5012821;28;20497;-76
2021/09/30 04:36:25;;;;;;;10.15;4.13;;;9.20;93.50;;;;;;5012986;28;20018;-76
2021/09/30 04:38:51;;;;;;;10.25;4.30;;;9.20;93.50;;;;;;5011811;28;20029;-77
2021/09/30 04:41:18;;;;;;;11.65;4.43;;;9.20;93.50;;;;;;5012236;28;20022;-77
2021/09/30 04:43:45;;;;;;;13.50;4.55;;;9.20;93.50;;;;;;5013414;28;20080;-76
2021/09/30 04:46:13;;;;;;;10.82;4.47;;;9.20;93.50;;;;;;5012133;28;20041;-76
2021/09/30 04:48:39;;;;;;;9.43;4.25;;;9.20;93.50;;;;;;5011815;28;20026;-77
2021/09/30 04:51:05;;;;;;;7.45;3.90;;;9.20;93.60;;;;;;5012030;28;20482;-76
2021/09/30 04:53:31;;;;;;;12.85;5.32;;;9.10;93.60;;;;;;5013227;28;20034;-76
2021/09/30 04:55:56;;;;;;;11.50;4.90;;;9.10;93.60;;;;;;5013629;28;20065;-76
2021/09/30 04:58:22;;;;;;;13.63;5.07;;;9.10;93.60;;;;;;5013401;28;20514;-76
2021/09/30 05:00:47;;;;;;;13.25;5.20;;;9.10;93.60;;;;;;5013101;28;20076;-77
2021/09/30 05:03:13;;;;;;;21.27;5.35;;;9.10;93.70;;;;;;5017486;28;20022;-76
2021/09/30 05:05:39;;;;;;;11.27;4.53;;;9.00;93.70;;;;;;5030076;28;20061;-76
2021/09/30 05:08:04;;;;;;;15.45;5.68;;;9.00;93.70;;;;;;5028259;28;20296;-76
2021/09/30 05:10:32;;;;;;;13.55;5.68;;;9.00;93.70;;;;;;5018428;28;20026;-76
2021/09/30 05:13:06;;;;;;;15.88;5.10;;;9.00;93.70;;;;;;5016505;28;20026;-76
2021/09/30 05:15:33;;;;;;;17.40;5.07;;;9.00;93.70;;;;;;5033419;28;20018;-75
2021/09/30 05:18:00;;;;;;;15.90;5.50;;;9.00;93.70;;;;;;5021115;28;20029;-76
2021/09/30 05:20:26;;;;;;;15.70;5.15;;;9.00;93.70;;;;;;5016549;28;20125;-76
2021/09/30 05:22:52;;;;;;;19.20;6.07;;;9.00;93.70;;;;;;5016414;28;20501;-76
2021/09/30 05:25:17;;;;;;;11.90;4.95;;;9.00;93.70;;;;;;5015399;28;20018;-77
2021/09/30 05:27:43;;;;;;;13.93;5.15;;;8.90;93.70;;;;;;5014787;28;20029;-76
2021/09/30 05:30:09;;;;;;;15.38;5.30;;;9.00;93.80;;;;;;5015298;28;20096;-77
2021/09/30 05:32:35;;;;;;;16.23;6.47;;;8.90;93.80;;;;;;5017147;28;20029;-76
2021/09/30 05:35:00;;;;;;;19.02;6.28;;;9.00;93.80;;;;;;5014977;28;20022;-76
2021/09/30 05:37:28;;;;;;;14.88;5.55;;;8.90;93.80;;;;;;5015361;28;20026;-77
2021/09/30 05:39:55;;;;;;;12.90;5.47;;;8.90;93.80;;;;;;5016497;28;20029;-76
2021/09/30 05:42:22;;;;;;;15.10;5.63;;;8.90;93.80;;;;;;5015440;28;20112;-77
2021/09/30 05:44:48;;;;;;;17.35;6.55;;;8.90;93.80;;;;;;5014892;28;20084;-76
2021/09/30 05:47:14;;;;;;;12.32;6.22;;;8.90;93.80;;;;;;5016834;28;20422;-77
2021/09/30 05:49:39;;;;;;;11.10;4.85;;;8.90;93.80;;;;;;5016354;28;20529;-74
2021/09/30 05:52:05;;;;;;;11.60;5.63;;;8.90;93.80;;;;;;5016347;28;20493;-77
2021/09/30 05:54:31;;;;;;;16.45;5.97;;;8.90;93.80;;;;;;5014849;28;20022;-76
2021/09/30 05:56:56;;;;;;;10.15;4.50;;;9.00;93.70;;;;;;5015457;28;20470;-76
2021/09/30 05:59:22;;;;;;;13.68;4.03;;;9.00;93.70;;;;;;5015873;28;20160;-76
2021/09/30 06:10:13;;;;;;;10.73;4.50;;;9.50;93.30;;;;;;5015286;28;20041;-77
2021/09/30 06:12:48;;;;;;;14.00;4.85;;;9.50;93.10;;;;;;5014403;28;20030;-76
2021/09/30 06:15:24;;;;;;;10.73;3.90;;;9.60;92.80;;;;;;5015794;28;20049;-76
2021/09/30 06:17:52;;;;;;;15.40;5.00;;;9.70;92.70;;;;;;5014323;28;20018;-76
2021/09/30 06:20:17;;;;;;;12.73;3.80;;;9.70;92.50;;;;;;5014378;28;20038;-76
2021/09/30 06:22:43;;;;;;;10.30;3.70;;;9.70;92.50;;;;;;5013703;28;20030;-76
2021/09/30 06:25:09;;;;;;;9.63;3.70;;;9.80;92.40;;;;;;5014263;28;20120;-76
2021/09/30 06:27:36;;;;;;;11.73;4.63;;;9.80;92.30;;;;;;5014169;28;20018;-77
2021/09/30 06:30:02;;;;;;;9.30;4.32;;;9.80;92.10;;;;;;5015178;28;20033;-76
2021/09/30 06:32:28;;;;;;;10.45;3.88;;;9.90;92.00;;;;;;5014097;28;20117;-76
2021/09/30 06:34:54;;;;;;;13.35;5.35;;;9.90;92.00;;;;;;5013696;28;20422;-76
2021/09/30 06:37:19;;;;;;;11.55;4.40;;;9.90;91.90;;;;;;5015200;28;20029;-76
2021/09/30 06:39:45;;;;;;;12.82;4.72;;;10.00;91.90;;;;;;5014789;28;20030;-76
2021/09/30 06:42:14;;;;;;;18.05;4.40;;;10.10;91.80;;;;;;5015413;28;20494;-77
2021/09/30 06:44:39;;;;;;;10.38;4.32;;;10.30;91.50;;;;;;5013816;28;20025;-77
2021/09/30 06:47:05;;;;;;;14.50;4.53;;;10.30;91.30;;;;;;5014738;28;20025;-76
2021/09/30 06:49:31;;;;;;;9.40;3.50;;;10.50;91.20;;;;;;5013748;28;20026;-76
2021/09/30 06:51:56;;;;;;;13.73;3.90;;;10.60;91.00;;;;;;5015061;28;20033;-75
2021/09/30 06:54:22;;;;;;;9.50;3.97;;;10.70;90.80;;;;;;5026737;28;20029;-74
2021/09/30 06:56:50;;;;;;;9.27;3.80;;;10.80;90.60;;;;;;5024453;28;20415;-77
2021/09/30 06:59:20;;;;;;;10.63;3.40;;;11.00;90.50;;;;;;5027279;28;20061;-74
2021/09/30 07:01:47;;;;;;;14.63;3.85;;;11.10;90.20;;;;;;5023045;28;20026;-77
2021/09/30 07:04:13;;;;;;;10.38;3.42;;;11.20;90.00;;;;;;5016598;28;20088;-75
2021/09/30 07:06:38;;;;;;;14.93;4.88;;;11.30;89.10;;;;;;5014851;28;20021;-77
2021/09/30 07:09:05;;;;;;;13.80;3.42;;;11.40;89.10;;;;;;5013671;28;20113;-76
2021/09/30 07:11:31;;;;;;;12.55;3.95;;;11.50;88.20;;;;;;5015372;28;20029;-76
2021/09/30 07:13:57;;;;;;;13.90;3.83;;;11.60;88.10;;;;;;5014189;28;20029;-75
2021/09/30 07:16:22;;;;;;;12.38;3.35;;;11.70;87.30;;;;;;5015965;28;20329;-76
2021/09/30 07:18:48;;;;;;;7.88;3.53;;;11.80;87.00;;;;;;5015733;28;20026;-76
2021/09/30 07:21:14;;;;;;;8.18;3.42;;;11.90;86.80;;;;;;5013348;28;20038;-76
2021/09/30 07:23:40;;;;;;;8.63;3.63;;;12.10;86.50;;;;;;5014486;28;20478;-75
2021/09/30 07:26:09;;;;;;;11.52;3.50;;;12.20;85.90;;;;;;5012550;28;20025;-75
2021/09/30 07:28:36;;;;;;;13.05;3.30;;;12.40;85.60;;;;;;5013115;28;20375;-76
2021/09/30 07:31:02;;;;;;;10.38;3.72;;;12.50;84.90;;;;;;5013498;28;20048;-75
2021/09/30 07:33:27;;;;;;;11.00;3.63;;;12.60;84.40;;;;;;5013614;28;20210;-75
2021/09/30 07:35:53;;;;;;;8.63;3.33;;;12.70;83.50;;;;;;5011730;28;20439;-76
2021/09/30 07:38:20;;;;;;;10.85;3.15;;;12.70;83.40;;;;;;5013853;28;20029;-75
2021/09/30 07:40:46;;;;;;;11.52;4.47;;;12.80;82.90;;;;;;5013731;28;20014;-75
2021/09/30 07:43:11;;;;;;;8.05;2.70;;;12.90;82.00;;;;;;5013682;28;20052;-76
2021/09/30 07:45:37;;;;;;;9.48;2.97;;;12.90;82.10;;;;;;5012378;28;20053;-76
2021/09/30 07:48:03;;;;;;;8.70;3.03;;;13.00;82.20;;;;;;5013605;28;20030;-76
2021/09/30 07:50:29;;;;;;;10.63;3.50;;;13.20;82.00;;;;;;5012265;28;20502;-76
2021/09/30 07:52:57;;;;;;;7.88;2.50;;;13.30;81.50;;;;;;5013319;28;20080;-76
2021/09/30 07:55:23;;;;;;;11.75;3.50;;;13.50;81.30;;;;;;5012564;28;20026;-77
2021/09/30 07:57:49;;;;;;;10.27;2.83;;;13.50;79.80;;;;;;5013461;28;20025;-76
2021/09/30 08:00:15;;;;;;;8.00;2.80;;;13.50;79.80;;;;;;5011884;28;20037;-77
2021/09/30 08:02:40;;;;;;;8.48;2.40;;;13.60;79.60;;;;;;5012317;28;20036;-76
2021/09/30 08:05:07;;;;;;;10.57;4.05;;;13.70;79.30;;;;;;5013526;28;20105;-75
2021/09/30 08:07:33;;;;;;;10.23;2.72;;;13.90;78.60;;;;;;5012344;28;20025;-75
2021/09/30 08:09:58;;;;;;;9.88;3.05;;;14.00;77.30;;;;;;5011779;28;20463;-76
2021/09/30 08:12:25;;;;;;;9.75;2.67;;;14.00;76.80;;;;;;5012410;28;20044;-76
2021/09/30 08:14:51;;;;;;;10.45;2.95;;;14.20;77.40;;;;;;5013088;28;20037;-76
2021/09/30 08:17:17;;;;;;;8.25;2.83;;;14.20;76.10;;;;;;5013438;28;20095;-75
2021/09/30 08:19:43;;;;;;;10.32;2.55;;;14.10;76.20;;;;;;5013095;28;20465;-76
2021/09/30 08:22:09;;;;;;;8.90;2.63;;;14.20;76.90;;;;;;5012225;28;20478;-76
2021/09/30 08:24:35;;;;;;;9.35;2.67;;;14.20;76.60;;;;;;5012284;28;20112;-76
2021/09/30 08:27:01;;;;;;;7.93;2.38;;;14.30;76.20;;;;;;5012041;28;20253;-76
2021/09/30 08:29:27;;;;;;;7.40;2.40;;;14.40;76.70;;;;;;5011966;28;20097;-78
2021/09/30 08:31:53;;;;;;;6.90;2.80;;;14.60;76.20;;;;;;5011586;28;20025;-76
2021/09/30 08:34:19;;;;;;;10.13;3.60;;;14.70;75.00;;;;;;5013250;28;20037;-75
2021/09/30 08:36:45;;;;;;;10.75;2.65;;;14.80;75.90;;;;;;5013044;28;20097;-76
2021/09/30 08:39:11;;;;;;;10.98;2.75;;;15.00;75.40;;;;;;5013215;28;20025;-77
2021/09/30 08:41:37;;;;;;;6.82;2.58;;;15.20;76.20;;;;;;5012566;28;20092;-77
2021/09/30 08:44:05;;;;;;;12.98;3.20;;;15.30;74.20;;;;;;5020818;28;20033;-76
2021/09/30 08:46:32;;;;;;;8.50;2.33;;;15.30;72.60;;;;;;5024654;28;20022;-76
2021/09/30 08:48:58;;;;;;;8.48;2.35;;;15.20;73.90;;;;;;5028912;28;20025;-76
2021/09/30 08:51:24;;;;;;;12.57;2.95;;;15.20;73.90;;;;;;5020765;28;20065;-78
2021/09/30 08:53:49;;;;;;;7.47;2.58;;;15.10;72.70;;;;;;5012826;28;20033;-77
2021/09/30 08:56:15;;;;;;;12.18;3.05;;;15.10;76.30;;;;;;5012849;28;20428;-76
2021/09/30 08:58:41;;;;;;;9.00;2.60;;;15.00;73.90;;;;;;5012113;28;20125;-76
2021/09/30 09:01:11;;;;;;;13.25;3.38;;;14.90;75.20;;;;;;5011020;28;20211;-76
2021/09/30 09:03:45;;;;;;;11.77;2.72;;;14.90;74.10;;;;;;5012238;28;20486;-77
2021/09/30 09:06:31;;;;;;;10.23;2.40;;;15.00;74.90;;;;;;5011332;28;20021;-76
2021/09/30 09:09:27;;;;;;;10.52;2.97;;;15.00;73.30;;;;;;5012707;28;20101;-78
2021/09/30 09:11:54;;;;;;;8.63;2.38;;;15.10;74.30;;;;;;5011728;28;20394;-76
2021/09/30 09:14:33;;;;;;;8.18;2.97;;;15.30;73.70;;;;;;5012048;28;20018;-77
2021/09/30 09:17:08;;;;;;;9.30;2.90;;;15.50;73.10;;;;;;5017364;28;20114;-76
2021/09/30 09:19:45;;;;;;;9.13;3.00;;;15.70;72.60;;;;;;5021295;28;20431;-76
2021/09/30 09:22:15;;;;;;;10.40;3.65;;;15.90;71.20;;;;;;5011354;28;20434;-77
2021/09/30 09:25:00;;;;;;;7.13;2.67;;;16.00;69.30;;;;;;5011653;28;20346;-76
2021/09/30 09:27:44;;;;;;;10.55;2.40;;;16.10;71.30;;;;;;5012143;28;20054;-74
2021/09/30 09:30:33;;;;;;;12.40;4.45;;;16.10;69.00;;;;;;5013608;28;20025;-75
2021/09/30 09:33:05;;;;;;;11.57;2.75;;;16.00;72.50;;;;;;5005666;28;20454;-77
2021/09/30 09:35:50;;;;;;;9.80;3.08;;;15.90;69.00;;;;;;5011072;28;20034;-76
2021/09/30 09:38:16;;;;;;;9.93;2.78;;;15.90;69.70;;;;;;5011013;28;20014;-76
2021/09/30 09:40:42;;;;;;;16.23;3.40;;;15.90;69.30;;;;;;5010790;28;20112;-77
2021/09/30 09:43:30;;;;;;;9.25;2.63;;;16.00;70.60;;;;;;5011867;28;20036;-76
2021/09/30 09:45:56;;;;;;;12.82;2.65;;;16.00;70.30;;;;;;5012001;28;20080;-77
2021/09/30 09:48:22;;;;;;;14.07;2.80;;;16.00;70.10;;;;;;5012085;28;20029;-76
2021/09/30 09:50:52;;;;;;;13.85;2.90;;;16.20;70.60;;;;;;5012473;28;20101;-77
2021/09/30 09:53:19;;;;;;;8.38;2.60;;;16.20;69.60;;;;;;5011822;28;20034;-78
2021/09/30 09:55:45;;;;;;;15.38;3.05;;;16.10;70.00;;;;;;5011418;28;20080;-76
2021/09/30 09:58:17;;;;;;;6.88;1.80;;;16.10;72.10;;;;;;5014090;28;20096;-76
2021/09/30 10:00:49;;;;;;;10.68;2.55;;;16.20;70.40;;;;;;5014626;28;20121;-77
2021/09/30 10:03:27;;;;;;;10.85;2.85;;;16.30;70.90;;;;;;5014827;28;20033;-77
2021/09/30 10:05:54;;;;;;;7.78;2.03;;;16.30;68.40;;;;;;5014712;28;20048;-78
2021/09/30 10:08:20;;;;;;;11.88;2.47;;;16.30;69.60;;;;;;5014553;28;20106;-77
2021/09/30 10:10:47;;;;;;;7.00;2.13;;;16.40;68.20;;;;;;5014156;28;20386;-78
2021/09/30 10:13:14;;;;;;;9.88;2.40;;;16.60;67.80;;;;;;5014436;28;20057;-76
2021/09/30 10:15:40;;;;;;;8.63;2.00;;;16.80;65.30;;;;;;5014194;28;20026;-75
2021/09/30 10:18:08;;;;;;;11.77;2.75;;;17.00;65.80;;;;;;5015540;28;20454;-76
2021/09/30 10:20:36;;;;;;;12.85;2.65;;;17.10;64.60;;;;;;5015761;28;20049;-75
2021/09/30 10:23:05;;;;;;;11.60;2.17;;;17.20;65.80;;;;;;5014514;28;20441;-75
2021/09/30 10:25:44;;;;;;;9.97;2.00;;;17.30;66.20;;;;;;5014181;28;20030;-74
2021/09/30 10:28:11;;;;;;;7.53;1.98;;;17.30;69.20;;;;;;5015744;28;20025;-75
2021/09/30 10:30:43;;;;;;;7.05;2.33;;;17.50;66.80;;;;;;5015404;28;20026;-76
2021/09/30 10:33:11;;;;;;;11.05;2.05;;;17.40;65.90;;;;;;5019113;28;20129;-75
2021/09/30 10:35:42;;;;;;;8.00;1.77;;;17.40;64.80;;;;;;5034548;28;20417;-75
2021/09/30 10:38:15;;;;;;;9.85;2.33;;;17.60;63.60;;;;;;5022928;28;20010;-76
2021/09/30 10:41:14;;;;;;;10.80;1.90;;;17.80;66.30;;;;;;5027041;28;20093;-75
2021/09/30 10:43:45;;;;;;;9.65;2.13;;;18.30;62.30;;;;;;5014365;28;20030;-76
2021/09/30 10:46:40;;;;;;;8.43;2.15;;;18.50;57.80;;;;;;5015415;28;20026;-75
2021/09/30 10:49:30;;;;;;;8.50;1.70;;;18.50;60.10;;;;;;5012591;28;20133;-76
2021/09/30 10:52:16;;;;;;;8.55;1.67;;;18.30;60.50;;;;;;5014715;28;20469;-75
2021/09/30 10:54:45;;;;;;;9.23;1.77;;;18.00;61.80;;;;;;5015520;28;20065;-76
2021/09/30 10:57:33;;;;;;;9.40;1.35;;;17.80;62.00;;;;;;5016079;28;20082;-75
2021/09/30 10:59:59;;;;;;;6.57;1.20;;;17.60;63.20;;;;;;5013568;28;20042;-76
2021/09/30 11:02:25;;;;;;;10.20;1.75;;;17.60;62.40;;;;;;5013797;28;20025;-74
2021/09/30 11:05:08;;;;;;;8.20;2.10;;;17.60;63.40;;;;;;5013428;28;20056;-75
2021/09/30 11:07:38;;;;;;;10.82;1.83;;;17.60;61.50;;;;;;5015273;28;20024;-76
2021/09/30 11:10:19;;;;;;;7.03;2.05;;;17.60;62.20;;;;;;5013695;28;20054;-75
2021/09/30 11:13:22;;;;;;;11.00;2.03;;;17.70;62.30;;;;;;5013292;28;20036;-75
2021/09/30 11:16:16;;;;;;;10.85;1.77;;;17.80;61.20;;;;;;5015602;28;20033;-75
2021/09/30 11:18:55;;;;;;;5.80;1.35;;;17.90;59.70;;;;;;5017970;28;20475;-73
2021/09/30 11:21:33;;;;;;;7.07;1.30;;;18.00;65.70;;;;;;5018262;28;20083;-75
2021/09/30 11:24:09;;;;;;;6.05;1.55;;;18.10;62.20;;;;;;5018035;28;20025;-75
2021/09/30 11:26:55;;;;;;;6.97;1.48;;;18.00;62.80;;;;;;5013599;28;20025;-77
2021/09/30 11:32:09;;;;;;;5.28;1.20;;;17.90;62.40;;;;;;5014829;28;20372;-75
2021/09/30 11:34:38;;;;;;;9.88;1.70;;;17.70;62.10;;;;;;5015403;28;20022;-76
2021/09/30 11:37:36;;;;;;;7.10;1.70;;;17.50;59.80;;;;;;5014502;28;20033;-76
2021/09/30 11:40:08;;;;;;;8.60;2.42;;;17.20;60.20;;;;;;5010624;28;20113;-77
2021/09/30 11:42:51;;;;;;;12.32;1.90;;;17.00;60.70;;;;;;5012979;28;20030;-77
2021/09/30 11:45:28;;;;;;;7.00;1.30;;;16.90;62.90;;;;;;5013657;28;20033;-76
2021/09/30 11:48:05;;;;;;;8.93;2.03;;;16.90;63.20;;;;;;5014625;28;20067;-76
2021/09/30 11:50:31;;;;;;;9.30;1.50;;;17.00;66.70;;;;;;5012745;28;20030;-77
2021/09/30 11:53:03;;;;;;;6.68;1.75;;;17.10;66.50;;;;;;5013740;28;20037;-77
2021/09/30 11:55:31;;;;;;;8.38;1.60;;;17.20;67.80;;;;;;5013458;28;20089;-77
2021/09/30 11:57:59;;;;;;;6.38;1.65;;;17.30;60.50;;;;;;5013732;28;20022;-77
2021/09/30 12:00:25;;;;;;;6.50;1.33;;;17.30;63.90;;;;;;5013323;28;20376;-77
2021/09/30 12:03:03;;;;;;;5.05;1.00;;;17.30;67.90;;;;;;5012868;28;20037;-77
2021/09/30 12:05:35;;;;;;;9.13;1.55;;;17.30;63.90;;;;;;5014939;28;20084;-77
2021/09/30 12:08:03;;;;;;;7.35;1.20;;;17.30;60.00;;;;;;5012669;28;20458;-76
2021/09/30 12:10:31;;;;;;;6.88;1.55;;;17.10;65.40;;;;;;5012568;28;20026;-77
2021/09/30 12:12:56;;;;;;;5.32;1.38;;;17.10;62.90;;;;;;5011895;28;20129;-76
2021/09/30 12:15:23;;;;;;;9.60;1.70;;;17.00;63.40;;;;;;5012014;28;20049;-75
2021/09/30 12:17:48;;;;;;;4.72;0.90;;;16.90;64.40;;;;;;5011864;28;20144;-76
2021/09/30 12:20:17;;;;;;;7.50;1.10;;;16.90;65.80;;;;;;5013947;28;20552;-76
2021/09/30 12:23:01;;;;;;;6.25;1.13;;;16.90;66.50;;;;;;5015368;28;20064;-75
2021/09/30 12:25:28;;;;;;;10.20;1.77;;;16.90;61.80;;;;;;5029240;28;20025;-74
2021/09/30 12:27:57;;;;;;;6.72;1.58;;;17.00;67.00;;;;;;5022954;28;20014;-76
2021/09/30 12:30:29;;;;;;;10.93;1.40;;;17.00;66.80;;;;;;5025016;28;20041;-76
2021/09/30 12:33:01;;;;;;;6.93;1.35;;;17.10;70.30;;;;;;5013578;28;20109;-75
2021/09/30 12:35:33;;;;;;;8.73;1.10;;;17.20;64.70;;;;;;5012101;28;20374;-76
2021/09/30 12:38:01;;;;;;;6.07;1.10;;;17.10;61.90;;;;;;5013002;28;20025;-75
2021/09/30 12:40:37;;;;;;;5.32;1.10;;;16.90;65.80;;;;;;5012043;28;20048;-77
2021/09/30 12:43:18;;;;;;;7.50;1.50;;;16.90;66.90;;;;;;5012962;28;20038;-77
2021/09/30 12:46:07;;;;;;;5.88;0.98;;;16.90;63.90;;;;;;5009594;28;20105;-77
2021/09/30 12:48:35;;;;;;;7.97;1.30;;;16.90;65.20;;;;;;5012748;28;20030;-78
2021/09/30 12:51:04;;;;;;;4.75;1.27;;;16.80;62.70;;;;;;5016002;28;20407;-77
2021/09/30 12:53:30;;;;;;;6.00;1.45;;;16.70;65.70;;;;;;5027066;28;20038;-75
2021/09/30 12:56:06;;;;;;;7.88;1.40;;;16.70;65.10;;;;;;5013747;28;20088;-75
2021/09/30 12:58:53;;;;;;;3.70;1.10;;;16.70;61.30;;;;;;5013291;28;20459;-75
2021/09/30 13:01:33;;;;;;;3.85;0.70;;;16.70;65.00;;;;;;5012775;28;20074;-76
2021/09/30 13:04:14;;;;;;;5.78;1.05;;;16.70;68.80;;;;;;5016947;28;20039;-76
2021/09/30 13:06:56;;;;;;;5.63;1.02;;;16.70;66.80;;;;;;5021590;28;20025;-76
2021/09/30 13:09:25;;;;;;;5.90;1.15;;;16.70;64.30;;;;;;5018564;28;20513;-75
2021/09/30 13:11:58;;;;;;;6.78;0.93;;;16.60;71.00;;;;;;5020231;28;20025;-75
2021/09/30 13:14:50;;;;;;;6.28;1.15;;;16.50;66.10;;;;;;5016172;28;20030;-76
2021/09/30 13:17:21;;;;;;;7.55;1.35;;;16.40;65.60;;;;;;5000854;28;20026;-76
2021/09/30 13:19:59;;;;;;;5.00;1.40;;;16.40;63.20;;;;;;5012810;28;20018;-74
2021/09/30 13:22:30;;;;;;;5.43;1.10;;;16.40;65.10;;;;;;5017659;28;20026;-73
2021/09/30 13:24:58;;;;;;;8.30;1.60;;;16.30;67.20;;;;;;5019013;28;20022;-75
2021/09/30 13:27:29;;;;;;;8.23;1.17;;;16.30;71.30;;;;;;5013613;28;20084;-78
2021/09/30 13:29:55;;;;;;;7.72;1.70;;;16.40;69.20;;;;;;5011531;28;20048;-75
2021/09/30 13:32:25;;;;;;;14.02;1.65;;;16.30;67.80;;;;;;5012592;28;20061;-77
2021/09/30 13:34:51;;;;;;;5.73;1.00;;;16.30;67.20;;;;;;5015191;28;20105;-78
2021/09/30 13:37:16;;;;;;;7.07;1.48;;;16.30;68.20;;;;;;5015683;28;20560;-78
2021/09/30 13:39:43;;;;;;;10.27;1.73;;;16.30;66.60;;;;;;5026219;28;20145;-78
2021/09/30 13:42:09;;;;;;;8.18;1.63;;;16.30;64.70;;;;;;5016223;28;20065;-77
2021/09/30 13:44:35;;;;;;;6.28;1.63;;;16.20;64.10;;;;;;5015337;28;20080;-76
2021/09/30 13:47:00;;;;;;;14.75;2.90;;;16.30;67.30;;;;;;5030134;28;20441;-77
2021/09/30 13:49:26;;;;;;;7.13;1.58;;;16.20;64.20;;;;;;5016122;28;20040;-76
2021/09/30 13:51:51;;;;;;;9.80;1.63;;;16.10;66.30;;;;;;5014640;28;20022;-77
2021/09/30 13:54:17;;;;;;;7.53;1.25;;;15.90;64.60;;;;;;5016741;28;20375;-77
2021/09/30 13:56:43;;;;;;;8.18;1.42;;;15.90;65.60;;;;;;5016199;28;20026;-77
2021/09/30 13:59:08;;;;;;;8.57;1.40;;;15.90;68.50;;;;;;5016394;28;20100;-76
2021/09/30 14:01:34;;;;;;;5.03;1.10;;;15.90;68.50;;;;;;5019957;28;20456;-76
2021/09/30 14:04:00;;;;;;;8.98;1.83;;;15.90;71.10;;;;;;5014551;28;20018;-76
2021/09/30 14:06:25;;;;;;;4.60;1.10;;;15.80;67.10;;;;;;5016329;28;20443;-77
2021/09/30 14:08:53;;;;;;;8.73;2.10;;;15.70;69.30;;;;;;5016519;28;20659;-77
2021/09/30 14:11:20;;;;;;;4.00;1.13;;;15.60;67.60;;;;;;5015240;28;20030;-77
2021/09/30 14:13:46;;;;;;;6.35;1.50;;;15.60;70.20;;;;;;5025584;28;20030;-75
2021/09/30 14:16:12;;;;;;;6.97;1.50;;;15.60;68.60;;;;;;5026567;28;20030;-77
2021/09/30 14:18:38;;;;;;;9.63;1.83;;;15.60;70.60;;;;;;5031336;28;20053;-75
2021/09/30 14:21:05;;;;;;;5.78;1.45;;;15.50;69.40;;;;;;5016262;28;20088;-77
2021/09/30 14:23:31;;;;;;;9.23;1.25;;;15.50;72.80;;;;;;5014664;28;20061;-77
2021/09/30 14:25:58;;;;;;;9.45;2.25;;;15.40;74.80;;;;;;5014427;28;20022;-77
2021/09/30 14:28:24;;;;;;;8.13;2.28;;;15.40;68.50;;;;;;5014014;28;20025;-76
2021/09/30 14:30:52;;;;;;;9.32;1.92;;;15.40;70.90;;;;;;5009118;28;20101;-76
2021/09/30 14:33:18;;;;;;;9.45;2.10;;;15.30;68.80;;;;;;5014311;28;20041;-78
2021/09/30 14:35:44;;;;;;;11.30;2.10;;;15.20;69.30;;;;;;5009906;28;20379;-76
2021/09/30 14:38:09;;;;;;;11.55;2.10;;;15.20;72.60;;;;;;4993799;28;20025;-80
2021/09/30 14:40:35;;;;;;;5.78;1.30;;;15.20;69.90;;;;;;5011037;28;20105;-77
2021/09/30 14:43:01;;;;;;;6.82;1.98;;;15.30;74.10;;;;;;4996871;28;20471;-76
2021/09/30 14:45:26;;;;;;;9.20;2.50;;;15.30;70.90;;;;;;5000668;28;20113;-74
2021/09/30 14:47:52;;;;;;;13.50;2.65;;;15.40;72.20;;;;;;5015085;28;20529;-76
2021/09/30 14:50:18;;;;;;;9.07;2.00;;;15.40;71.50;;;;;;5015664;28;20038;-76
2021/09/30 14:52:43;;;;;;;9.05;2.10;;;15.50;71.10;;;;;;5015074;28;20485;-75
2021/09/30 14:55:09;;;;;;;12.65;3.08;;;15.50;71.40;;;;;;5016802;28;20394;-75
2021/09/30 14:57:36;;;;;;;13.05;2.85;;;15.50;68.50;;;;;;5021290;28;20057;-75
2021/09/30 15:00:05;;;;;;;7.43;2.00;;;15.40;72.20;;;;;;5032336;28;20036;-76
2021/09/30 15:02:30;;;;;;;7.75;2.08;;;15.40;73.30;;;;;;5023159;28;20018;-75
2021/09/30 15:04:56;;;;;;;11.18;2.28;;;15.40;69.00;;;;;;5015004;28;20018;-74
2021/09/30 15:07:22;;;;;;;9.40;2.63;;;15.40;72.40;;;;;;5003362;28;20605;-77
2021/09/30 15:09:48;;;;;;;10.00;2.22;;;15.40;73.10;;;;;;5013424;28;20033;-76
2021/09/30 15:12:14;;;;;;;8.05;1.83;;;15.40;72.10;;;;;;5010510;28;20037;-75
2021/09/30 15:14:39;;;;;;;7.10;2.00;;;15.50;71.60;;;;;;5013433;28;20033;-75
2021/09/30 15:17:21;;;;;;;8.18;2.33;;;15.50;69.50;;;;;;5013704;28;20025;-75
2021/09/30 15:19:53;;;;;;;8.18;2.42;;;15.40;71.40;;;;;;5013802;28;20163;-76
2021/09/30 15:22:19;;;;;;;11.80;2.95;;;15.50;74.60;;;;;;5016612;28;20109;-76
2021/09/30 15:24:45;;;;;;;8.30;2.13;;;15.40;74.10;;;;;;5014114;28;20120;-76
2021/09/30 15:27:12;;;;;;;9.05;2.17;;;15.40;71.90;;;;;;5015436;28;20073;-76
2021/09/30 15:29:39;;;;;;;9.77;2.20;;;15.40;71.10;;;;;;5013322;28;20030;-76
2021/09/30 15:32:07;;;;;;;11.07;2.33;;;15.30;71.30;;;;;;5000768;28;20027;-76
2021/09/30 15:34:33;;;;;;;7.18;1.25;;;15.20;71.40;;;;;;5010848;28;20096;-75
2021/09/30 15:36:59;;;;;;;10.98;2.10;;;15.20;71.90;;;;;;5013771;28;20065;-75
2021/09/30 15:39:24;;;;;;;11.05;1.77;;;15.20;72.60;;;;;;5014505;28;20314;-76
2021/09/30 15:41:50;;;;;;;7.80;1.20;;;15.20;71.10;;;;;;5013368;28;20261;-74
2021/09/30 15:44:19;;;;;;;10.48;1.75;;;15.10;71.50;;;;;;5013186;28;20466;-76
2021/09/30 15:46:46;;;;;;;7.95;1.42;;;15.10;74.40;;;;;;5012931;28;20030;-77
2021/09/30 15:49:11;;;;;;;9.80;2.08;;;15.00;74.40;;;;;;5012637;28;20129;-75
2021/09/30 15:51:37;;;;;;;9.88;1.88;;;15.10;75.90;;;;;;5013519;28;20030;-75
2021/09/30 15:54:03;;;;;;;8.27;1.95;;;15.00;72.10;;;;;;5013493;28;20103;-76